createdAt,value
2023-05-20T00:05:09.972Z,35.5
2023-05-20T00:10:40.409Z,35.5
2023-05-20T00:16:10.918Z,35.5
2023-05-20T00:21:41.472Z,35.5
2023-05-20T00:27:12.098Z,35.5
2023-05-20T00:32:42.626Z,35.5
2023-05-20T00:38:13.164Z,35
2023-05-20T00:43:43.685Z,35.5
2023-05-20T00:49:13.137Z,35.5
2023-05-20T00:54:43.621Z,35.5
2023-05-20T01:00:14.073Z,35
2023-05-20T01:05:44.879Z,35.5
2023-05-20T01:11:15.260Z,35.5
2023-05-20T01:22:16.437Z,35.5
2023-05-20T01:28:52.926Z,35.5
2023-05-20T01:34:22.439Z,35.5
2023-05-20T01:39:52.884Z,35.5
2023-05-20T01:45:23.341Z,35.5
2023-05-20T01:50:53.955Z,35.5
2023-05-20T01:56:24.482Z,35.5
2023-05-20T02:01:54.959Z,36
2023-05-20T02:07:24.518Z,35.5
2023-05-20T02:12:54.960Z,36
2023-05-20T02:18:25.580Z,36
2023-05-20T02:23:56.039Z,36
2023-05-20T02:29:26.516Z,36
2023-05-20T02:34:57.080Z,36
2023-05-20T02:40:27.565Z,36
2023-05-20T02:45:58.084Z,36
2023-05-20T02:51:28.668Z,36
2023-05-20T02:56:59.136Z,36
2023-05-20T03:02:28.757Z,36
2023-05-20T03:07:59.227Z,36
2023-05-20T03:13:29.677Z,36
2023-05-20T03:19:00.349Z,36
2023-05-20T03:24:30.794Z,36
2023-05-20T03:30:01.262Z,36
2023-05-20T03:35:30.747Z,36.5
2023-05-20T03:41:01.215Z,36.5
2023-05-20T03:46:31.896Z,36.5
2023-05-20T03:52:02.329Z,36.5
2023-05-20T03:57:32.762Z,36.5
2023-05-20T04:03:03.580Z,36.5
2023-05-20T04:08:33.948Z,36.5
2023-05-20T04:14:04.455Z,36.5
2023-05-20T04:19:35.030Z,36.5
2023-05-20T04:25:05.636Z,36.5
2023-05-20T04:30:36.224Z,36.5
2023-05-20T04:36:06.714Z,36.5
2023-05-20T04:41:37.195Z,36.5
2023-05-20T04:47:07.771Z,36.5
2023-05-20T04:52:38.352Z,36.5
2023-05-20T04:58:08.813Z,36.5
2023-05-20T05:03:39.421Z,36.5
2023-05-20T05:09:09.903Z,36.5
2023-05-20T05:14:39.353Z,37.5
2023-05-20T05:20:09.858Z,39
2023-05-20T05:25:40.316Z,39
2023-05-20T05:31:10.919Z,37.5
2023-05-20T05:42:11.873Z,39
2023-05-20T05:47:42.502Z,39.5
2023-05-20T05:53:12.933Z,40
2023-05-20T05:58:43.535Z,39.5
2023-05-20T06:04:14.145Z,41
2023-05-20T06:09:44.556Z,39
2023-05-20T06:15:15.148Z,38.5
2023-05-20T06:20:45.641Z,38
2023-05-20T06:26:16.111Z,37.5
2023-05-20T06:31:46.829Z,37.5
2023-05-20T06:37:17.286Z,37.5
2023-05-20T06:42:47.784Z,37.5
2023-05-20T06:48:18.376Z,37.5
2023-05-20T06:53:48.872Z,37.5
2023-05-20T06:59:19.296Z,37.5
2023-05-20T07:04:49.926Z,37.5
2023-05-20T07:10:20.386Z,37.5
2023-05-20T07:15:49.906Z,37.5
2023-05-20T07:21:20.355Z,37.5
2023-05-20T07:26:50.808Z,37.5
2023-05-20T07:32:20.306Z,37.5
2023-05-20T07:37:50.796Z,37.5
2023-05-20T07:43:21.274Z,38
2023-05-20T07:48:51.866Z,38
2023-05-20T07:54:22.324Z,38
2023-05-20T07:59:52.908Z,38
2023-05-20T08:05:23.479Z,37.5
2023-05-20T08:10:53.934Z,37.5
2023-05-20T08:16:24.493Z,37.5
2023-05-20T08:21:53.912Z,37.5
2023-05-20T08:27:24.422Z,37.5
2023-05-20T08:32:55.072Z,37.5
2023-05-20T08:38:25.601Z,37.5
2023-05-20T08:43:56.110Z,37.5
2023-05-20T08:49:25.581Z,37.5
2023-05-20T08:54:56.060Z,37.5
2023-05-20T09:00:26.518Z,37.5
2023-05-20T09:05:57.145Z,37.5
2023-05-20T09:11:27.603Z,37.5
2023-05-20T09:16:58.079Z,37.5
2023-05-20T09:22:28.799Z,37.5
2023-05-20T09:27:59.243Z,37.5
2023-05-20T09:33:29.732Z,37.5
2023-05-20T09:39:00.305Z,37.5
2023-05-20T09:44:30.815Z,37.5
2023-05-20T09:50:01.391Z,37.5
2023-05-20T09:55:32.107Z,37.5
2023-05-20T10:01:02.350Z,37.5
2023-05-20T10:06:31.817Z,37.5
2023-05-20T10:12:02.324Z,37.5
2023-05-20T10:17:33.241Z,37.5
2023-05-20T10:23:03.369Z,37.5
2023-05-20T10:28:33.170Z,37.5
2023-05-20T10:34:03.338Z,37.5
2023-05-20T10:45:04.408Z,37.5
2023-05-20T10:50:35.224Z,38
2023-05-20T10:56:05.369Z,38
2023-05-20T11:01:34.954Z,38.5
2023-05-20T11:07:05.323Z,38.5
2023-05-20T11:12:35.834Z,38.5
2023-05-20T11:18:06.450Z,38
2023-05-20T11:23:38.683Z,38
2023-05-20T11:29:07.338Z,38.5
2023-05-20T11:34:38.058Z,39
2023-05-20T11:41:14.597Z,38.5
2023-05-20T11:46:45.395Z,39
2023-05-20T11:52:15.797Z,39
2023-05-20T11:57:44.526Z,39
2023-05-20T12:03:15.197Z,39
2023-05-20T12:08:45.518Z,39
2023-05-20T12:14:15.133Z,38.5
2023-05-20T12:19:45.772Z,38.5
2023-05-20T12:25:16.092Z,38.5
2023-05-20T12:41:46.790Z,39
2023-05-20T12:47:17.399Z,42
2023-05-20T12:52:46.774Z,40.5
2023-05-20T12:58:16.381Z,40.5
2023-05-20T13:03:46.876Z,39.5
2023-05-20T13:09:17.348Z,39.5
2023-05-20T13:14:47.939Z,39
2023-05-20T13:21:23.654Z,38.5
2023-05-20T13:26:54.162Z,38.5
2023-05-20T13:32:24.769Z,38
2023-05-20T13:37:55.300Z,38
2023-05-20T13:43:25.777Z,38.5
2023-05-20T13:48:56.399Z,38
2023-05-20T13:54:26.859Z,38
2023-05-20T14:05:28.072Z,38
2023-05-20T14:10:58.664Z,37.5
2023-05-20T14:16:29.218Z,38
2023-05-20T14:21:59.599Z,37.5
2023-05-20T14:27:29.133Z,38
2023-05-20T14:38:30.040Z,38
2023-05-20T14:44:00.666Z,38
2023-05-20T14:49:31.112Z,37.5
2023-05-20T14:56:07.723Z,37.5
2023-05-20T15:01:38.369Z,37.5
2023-05-20T15:07:08.803Z,37.5
2023-05-20T15:12:38.282Z,37.5
2023-05-20T15:18:08.797Z,37.5
2023-05-20T15:23:39.282Z,37.5
2023-05-20T15:34:40.313Z,37.5
2023-05-20T15:40:10.795Z,37
2023-05-20T15:45:41.385Z,37.5
2023-05-20T15:51:11.989Z,37.5
2023-05-20T15:56:42.568Z,37.5
2023-05-20T16:02:13.070Z,37.5
2023-05-20T16:07:43.789Z,37.5
2023-05-20T16:13:14.105Z,38
2023-05-20T16:18:44.586Z,38
2023-05-20T16:24:15.083Z,38
2023-05-20T16:29:45.693Z,38
2023-05-20T16:35:16.311Z,38.5
2023-05-20T16:40:46.590Z,38.5
2023-05-20T16:46:17.267Z,38.5
2023-05-20T16:51:47.812Z,38.5
2023-05-20T16:57:18.190Z,38.5
2023-05-20T17:02:48.812Z,39
2023-05-20T17:08:19.254Z,39
2023-05-20T17:13:48.756Z,39
2023-05-20T17:19:19.298Z,39
2023-05-20T17:30:20.496Z,39.5
2023-05-20T17:35:50.892Z,40
2023-05-20T17:41:20.394Z,40
2023-05-20T17:46:50.855Z,40
2023-05-20T17:52:20.338Z,40.5
2023-05-20T17:57:50.881Z,40.5
2023-05-20T18:03:21.427Z,40.5
2023-05-20T18:09:58.021Z,40.5
2023-05-20T18:15:28.536Z,40.5
2023-05-20T18:20:57.975Z,41
2023-05-20T18:26:28.466Z,41
2023-05-20T18:31:58.995Z,40.5
2023-05-20T18:37:29.424Z,40.5
2023-05-20T18:43:00.073Z,40
2023-05-20T18:59:31.613Z,39.5
2023-05-20T19:05:02.116Z,39.5
2023-05-20T19:10:32.694Z,39.5
2023-05-20T19:16:03.161Z,39.5
2023-05-20T19:21:33.665Z,39.5
2023-05-20T19:27:03.274Z,39.5
2023-05-20T19:32:33.734Z,39.5
2023-05-20T19:38:04.309Z,39.5
2023-05-20T19:43:34.761Z,39.5
2023-05-20T19:49:05.251Z,39.5
2023-05-20T19:54:35.860Z,39.5
2023-05-20T20:00:06.341Z,39.5
2023-05-20T20:05:37.147Z,39.5
2023-05-20T20:11:07.416Z,39.5
2023-05-20T20:16:37.883Z,39.5
2023-05-20T20:22:08.517Z,39.5
2023-05-20T20:27:39.022Z,39.5
2023-05-20T20:33:09.616Z,39.5
2023-05-20T20:38:40.121Z,39.5
2023-05-20T20:44:10.557Z,39.5
2023-05-20T20:49:41.113Z,39.5
2023-05-20T20:55:11.739Z,39.5
2023-05-20T21:00:42.198Z,39.5
2023-05-20T21:07:17.774Z,39.5
2023-05-20T21:12:48.266Z,39.5
2023-05-20T21:18:18.861Z,39.5
2023-05-20T21:23:49.350Z,39.5
2023-05-20T21:29:19.951Z,39.5
2023-05-20T21:34:50.390Z,39.5
2023-05-20T21:40:20.873Z,39.5
2023-05-20T21:45:51.365Z,39.5
2023-05-20T21:51:21.948Z,39.5
2023-05-20T21:56:52.423Z,39.5
2023-05-20T22:02:22.986Z,39.5
2023-05-20T22:07:53.502Z,39.5
2023-05-20T22:13:24.115Z,39.5
2023-05-20T22:18:54.484Z,39.5
2023-05-20T22:24:23.934Z,39.5
2023-05-20T22:35:23.916Z,39.5
2023-05-20T22:40:54.397Z,39.5
2023-05-20T22:46:24.934Z,39.5
2023-05-20T22:51:54.364Z,39.5
2023-05-20T22:57:24.869Z,39.5
2023-05-20T23:02:55.373Z,39.5
2023-05-20T23:08:24.808Z,39.5
2023-05-20T23:13:55.312Z,40
2023-05-20T23:19:26.226Z,39.5
2023-05-20T23:24:56.338Z,39.5
2023-05-20T23:30:26.841Z,39.5
2023-05-20T23:35:57.408Z,40
2023-05-20T23:41:27.926Z,39.5
2023-05-20T23:46:58.359Z,39.5
2023-05-20T23:52:27.853Z,39.5
2023-05-20T23:57:58.308Z,39.5
